• Join FlightAware (Why Join?)
  • Login
  • US Flag 
08:56PM EDT


 

Airport Tracker/Info


-or-


 

Live Flight TrackerFlight Track Log ✈ ASQ5941 ✈ 02-Nov-2013 ✈ KORD - KAVP

Flight Track Log - Related Links

Times and Time Zones

All times are in EDT time to prevent confusion due to time zone crossing. See the ASQ5941 flight status page for this flight to view local times or setup timezone preferences in your user account.

Time Position Orientation Groundspeed Altitude Reporting Facility
EDT Latitude Longitude Course Direction KTS MPH feet Rate Location/Type
03:23PM 42.0167 -87.9167 73° East 185 213 2,600  Level Chicago TRACON
03:24PM 42.0667 -87.8667 37° Northeast 225 259 4,500 1,680 Climbing Chicago TRACON
03:26PM 41.9803 -87.2919 80° East  Level Estimated
03:26PM 42.1678 -87.7169 48° Northeast 275 316 8,200  Level Chicago Center
03:27PM 41.9794 -87.1382 90° East  Level Estimated
03:27PM 42.1606 -87.6108 95° East 283 326 10,200  Level Chicago Center
03:28PM 42.0131 -86.9913 73° East  Level FlightAware Approximate
03:28PM 42.1511 -87.4972 96° East 302 348 11,800  Level Chicago Center
03:29PM 42.1403 -87.3722 97° East 330 380 12,800 900 Climbing Chicago Center
03:30PM 42.1281 -87.2372 97° East 359 413 13,700 900 Climbing Chicago Center
03:31PM 42.1156 -87.0961 97° East 377 434 14,700 1,020 Climbing Chicago Center
03:32PM 42.1167 -86.9511 89° East 389 448 15,800 1,200 Climbing Chicago Center
03:33PM 42.1236 -86.7778 87° East 388 447 17,200 1,200 Climbing Chicago Center
03:34PM 42.1278 -86.6289 88° East 396 456 18,300 1,020 Climbing Chicago Center
03:35PM 42.1331 -86.4794 87° East 400 460 19,400 1,020 Climbing Chicago Center
03:36PM 42.1383 -86.3275 87° East 403 464 20,500 1,020 Climbing Chicago Center
03:37PM 42.1425 -86.1764 88° East 404 465 21,600 1,080 Climbing Chicago Center
03:38PM 42.1439 -86.0231 89° East 406 467 22,800 1,140 Climbing Chicago Center
03:39PM 42.1417 -85.8519 91° East 408 470 24,000 1,020 Climbing Chicago Center
03:41PM 42.1403 -85.6997 91° East 408 470 25,000 1,020 Climbing Chicago Center
03:42PM 42.1397 -85.5472 90° East 409 471 26,100 1,020 Climbing Chicago Center
03:43PM 42.1375 -85.3956 91° East 409 471 27,100 960 Climbing Chicago Center
03:44PM 42.1361 -85.2447 91° East 407 468 28,100 840 Climbing Chicago Center
03:45PM 42.1342 -85.0917 91° East 410 472 28,900 780 Climbing Chicago Center
03:46PM 42.1311 -84.9061 91° East 414 476 29,800 900 Climbing Chicago Center
03:47PM 42.1283 -84.7486 91° East 421 484 30,800 960 Climbing Chicago Center
03:48PM 42.1253 -84.5914 91° East 422 486 31,800 900 Climbing Chicago Center
03:49PM 42.1264 -84.4311 89° East 428 493 32,700 840 Climbing Chicago Center
03:50PM 42.1425 -84.2911 81° East 430 495 33,500 660 Climbing Cleveland Center
03:51PM 42.1606 -84.1322 81° East 430 495 34,000 240 Climbing Cleveland Center
03:52PM 42.1783 -83.9672 82° East 444 511 34,000  Level Cleveland Center
03:53PM 42.2000 -83.7606 82° East 465 535 34,000  Level Cleveland Center
03:54PM 42.2211 -83.5836 81° East 480 552 34,000 180 Level Cleveland Center
03:55PM 42.2408 -83.4097 81° East 484 557 34,400 480 Climbing Cleveland Center
03:56PM 42.2553 -83.2097 84° East 476 548 35,000 240 Climbing Cleveland Center
03:57PM 42.2383 -83.0353 97° East 472 543 35,000  Level Cleveland Center
03:58PM 42.2208 -82.8564 97° East 480 552 35,000  Level Cleveland Center
03:59PM 42.2017 -82.6758 98° East 487 560 35,000  Level Cleveland Center
04:00PM 42.1833 -82.4961 98° East 486 559 35,000  Level Cleveland Center
04:01PM 42.1653 -82.3153 98° East 488 562 35,000  Level Cleveland Center
04:02PM 42.1444 -82.1144 98° East 490 564 35,000  Level Cleveland Center
04:03PM 42.1231 -81.9319 99° East 489 563 35,000  Level Cleveland Center
04:04PM 42.1042 -81.7481 98° East 490 564 35,000  Level Cleveland Center
04:05PM 42.0839 -81.5653 98° East 489 563 35,000  Level Cleveland Center
04:06PM 42.0597 -81.3494 99° East 494 568 35,000  Level Cleveland Center
04:07PM 42.0389 -81.1669 99° East 490 564 35,000  Level Cleveland Center
04:08PM 42.0181 -80.9825 99° East 493 567 35,000  Level Cleveland Center
04:09PM 41.9992 -80.7986 98° East 492 566 35,000  Level Cleveland Center
04:10PM 41.9856 -80.6106 95° East 498 573 35,000  Level Cleveland Center
04:11PM 41.9725 -80.4242 95° East 499 574 35,000 -180 Level Cleveland Center
04:12PM 41.9581 -80.2386 96° East 496 571 34,700 -660 Descending Cleveland Center
04:13PM 41.9425 -80.0472 96° East 508 585 33,700 -840 Descending Cleveland Center
04:14PM 41.9261 -79.8586 97° East 504 580 33,000 -360 Descending Cleveland Center
04:15PM 41.9078 -79.6364 96° East 507 583 33,000  Level Cleveland Center
04:16PM 41.8928 -79.4592 96° East 506 582 33,000 -420 Level Cleveland Center
04:17PM 41.8744 -79.2514 97° East 503 579 32,200 -840 Descending Cleveland Center
04:19PM 41.8572 -79.0619 97° East 509 586 31,300 -900 Descending Cleveland Center
04:20PM 41.8425 -78.8983 97° East 508 585 30,400 -1,260 Descending Cleveland Center
04:21PM 41.8217 -78.6772 97° East 502 578 28,800 -1,800 Descending Cleveland Center
04:22PM 41.8039 -78.4858 97° East 510 587 26,800 -1,980 Descending Cleveland Center
04:23PM 41.7861 -78.3025 97° East 505 581 24,800 -1,560 Descending Cleveland Center
04:24PM 41.7683 -78.1300 98° East 484 557 23,600 -900 Descending Cleveland Center
04:25PM 41.7536 -77.9644 97° East 459 528 23,000 -360 Descending Cleveland Center
04:25PM 41.7375 -77.8150 98° East 475 547 23,000  Level New York Center
04:26PM 41.7206 -77.6408 97° East 475 547 23,000  Level New York Center
04:27PM 41.7022 -77.4861 99° East 468 539 23,000  Level New York Center
04:28PM 41.6831 -77.3092 98° East 468 539 23,000 -900 Level New York Center
04:29PM 41.6650 -77.1408 98° East 468 539 21,200 -1,800 Descending New York Center
04:30PM 41.6486 -76.9783 98° East 448 516 19,400 -2,040 Descending New York Center
04:31PM 41.6317 -76.8239 98° East 435 501 17,200 -2,280 Descending New York Center
04:32PM 41.6111 -76.6500 99° East 430 495 14,900 -2,100 Descending New York Center
04:33PM 41.5956 -76.5017 98° East 419 482 13,000 -1,800 Descending New York Center
04:34PM 41.5775 -76.3586 100° East 403 464 11,300 -1,440 Descending New York Center
04:35PM 41.5661 -76.2442 98° East 361 415 10,200 -1,440 Descending New York Center
04:36PM 41.5481 -76.1344 102° East 314 361 8,500 -1,980 Descending New York Center
04:37PM 41.5197 -76.0242 109° East 287 330 6,300 -1,800 Descending New York Center
04:38PM 41.5097 -75.9181 97° East 287 330 5,000 -1,140 Descending New York Center
04:39PM 41.4997 -75.8147 97° East 282 325 4,100 -540 Descending New York Center
04:40PM 41.4806 -75.7275 106° East 263 303 4,000 -240 Descending New York Center
04:41PM 41.4519 -75.6644 121° Southeast 207 238 3,700 -600 Descending New York Center
04:42PM 41.4017 -75.6664 182° South 169 194 2,900 -1,080 Descending New York Center
04:43PM 41.3714 -75.6947 215° Southwest 138 159 1,600 -720 Descending New York Center
04:44PM 41.3383 -75.6922 177° South 133 153 1,500 -120 Descending New York Center